Weather at Irkutsk Airport

Public forecast

Using degrees Celsius for public forecast. Weather courtesy of forecast.io.

Current aviation weather report (METAR) for Irkutsk Airport

Retrieved 2020/10/31 04:30 UTC (0 seconds ago):

UIII 310430Z VRB01MPS 9999 FEW033 00/M03 Q1020 R12/910155 NOSIG RMK QFE722/0963

Aviation forecast (TAF) for Irkutsk Airport

Retrieved 2020-10-31 03:26 UTC (43 minutes ago):

TAF UIII 310200Z 3103/0103 30003MPS 9999 BKN010CB TEMPO 3103/3121 30008G14MPS 1200 SHSN BKN003 BKN007CB